Time;durP1;ratioP1;P1;durP2;ratioP2;P2;SDS_P1;SDS_P2;PMS_P1;PMS_P2;Temp;Humidity;BMP_temperature;BMP_pressure;BME280_temperature;BME280_humidity;BME280_pressure;Samples;Min_cycle;Max_cycle;Signal;HPM_P1;HPM_P2
2024/01/04 00:00:33;;;;;;;255.75;237.82;;;10.60;99.90;;;;;;4997547;27;20046;-72
2024/01/04 00:03:00;;;;;;;221.57;206.07;;;10.70;99.90;;;;;;5044825;28;20047;-72
2024/01/04 00:05:26;;;;;;;209.20;194.18;;;10.60;99.90;;;;;;4988257;28;20034;-72
2024/01/04 00:07:52;;;;;;;178.23;164.75;;;10.60;99.90;;;;;;4988327;28;20065;-72
2024/01/04 00:10:18;;;;;;;196.77;183.32;;;10.70;99.90;;;;;;4988067;28;20034;-72
2024/01/04 00:12:44;;;;;;;205.57;190.50;;;10.70;99.90;;;;;;4989530;28;20391;-72
2024/01/04 00:15:11;;;;;;;262.25;244.35;;;10.60;99.90;;;;;;4987201;28;20034;-72
2024/01/04 00:17:37;;;;;;;221.82;207.13;;;10.70;99.90;;;;;;4987966;28;20049;-72
2024/01/04 00:20:03;;;;;;;226.43;210.38;;;10.70;99.90;;;;;;4971626;28;20057;-72
2024/01/04 00:22:29;;;;;;;238.25;222.38;;;10.70;99.90;;;;;;4989287;28;20039;-72
2024/01/04 00:24:55;;;;;;;228.20;213.38;;;10.70;99.90;;;;;;4988119;28;20079;-72
2024/01/04 00:27:21;;;;;;;233.35;217.73;;;10.70;99.90;;;;;;4988683;28;20495;-72
2024/01/04 00:29:47;;;;;;;236.55;220.75;;;10.70;99.90;;;;;;4990945;28;20034;-72
2024/01/04 00:32:14;;;;;;;224.13;209.10;;;10.70;99.90;;;;;;4990363;28;20412;-72
2024/01/04 00:34:40;;;;;;;203.73;188.80;;;10.70;99.90;;;;;;4992652;28;20023;-72
2024/01/04 00:37:06;;;;;;;229.50;214.77;;;10.70;99.90;;;;;;4992146;28;20058;-72
2024/01/04 00:39:32;;;;;;;268.98;251.48;;;10.70;99.90;;;;;;4992265;28;20113;-72
2024/01/04 00:41:58;;;;;;;248.07;231.85;;;10.70;99.90;;;;;;4991194;28;20038;-72
2024/01/04 00:44:24;;;;;;;289.85;270.63;;;10.70;99.90;;;;;;4990255;28;20042;-72
2024/01/04 00:46:53;;;;;;;359.80;335.52;;;10.80;99.90;;;;;;4990518;28;20503;-72
2024/01/04 00:49:20;;;;;;;356.90;333.73;;;10.70;99.90;;;;;;4992512;28;20484;-72
2024/01/04 00:51:46;;;;;;;413.02;385.85;;;10.70;99.90;;;;;;4991146;28;20053;-72
2024/01/04 00:54:13;;;;;;;401.40;374.13;;;10.60;99.90;;;;;;4990983;28;20411;-72
2024/01/04 00:56:39;;;;;;;367.80;343.48;;;10.60;99.90;;;;;;4990961;28;20041;-72
2024/01/04 00:59:05;;;;;;;419.85;392.33;;;10.60;99.90;;;;;;4991774;28;20049;-72
2024/01/04 01:01:34;;;;;;;422.90;394.40;;;10.60;99.90;;;;;;5020745;28;20038;-72
2024/01/04 01:04:02;;;;;;;356.67;332.77;;;10.60;99.90;;;;;;4992106;28;20041;-72
2024/01/04 01:06:29;;;;;;;353.40;330.70;;;10.60;99.90;;;;;;4992190;28;20039;-72
2024/01/04 01:08:55;;;;;;;356.90;333.85;;;10.60;99.90;;;;;;4992058;28;20491;-72
2024/01/04 01:11:21;;;;;;;348.33;325.15;;;10.60;99.90;;;;;;4990929;28;20030;-73
2024/01/04 01:13:47;;;;;;;372.35;348.25;;;10.60;99.90;;;;;;4991684;28;20511;-72
2024/01/04 01:16:14;;;;;;;331.00;309.45;;;10.60;99.90;;;;;;4991431;27;20072;-72
2024/01/04 01:18:40;;;;;;;302.20;282.23;;;10.60;99.90;;;;;;4974382;28;20077;-72
2024/01/04 01:21:06;;;;;;;295.60;275.80;;;10.60;99.90;;;;;;4990457;28;20035;-72
2024/01/04 01:23:32;;;;;;;296.75;276.45;;;10.60;99.90;;;;;;4990413;28;20050;-72
2024/01/04 01:25:58;;;;;;;305.60;285.45;;;10.50;99.90;;;;;;4990499;28;20030;-72
2024/01/04 01:28:24;;;;;;;238.20;222.82;;;10.50;99.90;;;;;;4991103;28;20034;-72
2024/01/04 01:30:51;;;;;;;242.68;226.23;;;10.50;99.90;;;;;;4991264;28;20404;-72
2024/01/04 01:33:17;;;;;;;217.27;202.77;;;10.50;99.90;;;;;;4990710;28;20034;-72
2024/01/04 01:35:43;;;;;;;231.88;216.60;;;10.50;99.90;;;;;;4991037;28;20034;-72
2024/01/04 01:38:09;;;;;;;215.70;201.68;;;10.50;99.90;;;;;;4991231;28;20047;-72
2024/01/04 01:40:35;;;;;;;175.55;163.90;;;10.50;99.90;;;;;;4989726;28;20054;-72
2024/01/04 01:43:01;;;;;;;163.85;152.57;;;10.50;99.90;;;;;;4991238;28;20042;-72
2024/01/04 01:45:27;;;;;;;272.50;255.00;;;10.50;99.90;;;;;;4991081;28;20038;-72
2024/01/04 01:47:53;;;;;;;227.30;212.75;;;10.60;99.90;;;;;;4991590;28;20034;-72
2024/01/04 01:50:20;;;;;;;183.98;170.98;;;10.60;99.90;;;;;;4990060;28;20065;-72
2024/01/04 01:52:48;;;;;;;161.02;149.20;;;10.60;99.90;;;;;;4990997;28;20041;-72
2024/01/04 01:55:16;;;;;;;180.57;168.13;;;10.60;99.90;;;;;;4990304;28;20030;-72
2024/01/04 01:57:43;;;;;;;129.93;120.72;;;10.60;99.90;;;;;;4989596;28;20046;-72
2024/01/04 02:00:10;;;;;;;127.03;118.10;;;10.60;99.90;;;;;;4989213;28;20029;-72
2024/01/04 02:02:37;;;;;;;113.45;104.28;;;10.60;99.90;;;;;;4987442;28;20400;-72
2024/01/04 02:05:03;;;;;;;129.80;120.38;;;10.70;99.90;;;;;;4991184;28;20455;-72
2024/01/04 02:07:29;;;;;;;148.40;138.00;;;10.70;99.90;;;;;;4991088;28;20039;-72
2024/01/04 02:09:55;;;;;;;147.68;136.73;;;10.60;99.90;;;;;;4989906;28;20057;-72
2024/01/04 02:12:21;;;;;;;142.23;132.10;;;10.60;99.90;;;;;;5000017;28;20356;-72
2024/01/04 02:14:54;;;;;;;152.25;141.10;;;10.50;99.90;;;;;;4989429;28;20034;-72
2024/01/04 02:17:21;;;;;;;187.48;174.10;;;10.50;99.90;;;;;;4990342;27;20042;-72
2024/01/04 02:19:47;;;;;;;186.27;174.07;;;10.50;99.90;;;;;;4991105;28;20030;-72
2024/01/04 02:22:14;;;;;;;230.00;215.00;;;10.50;99.90;;;;;;4989553;28;20026;-72
2024/01/04 02:24:40;;;;;;;227.55;212.52;;;10.60;99.90;;;;;;4990828;28;20030;-72
2024/01/04 02:27:06;;;;;;;232.07;217.88;;;10.50;99.90;;;;;;4990280;28;20034;-72
2024/01/04 02:29:32;;;;;;;198.80;186.05;;;10.60;99.90;;;;;;4989720;28;20030;-72
2024/01/04 02:31:58;;;;;;;221.40;206.60;;;10.60;99.90;;;;;;4990286;28;20068;-72
2024/01/04 02:34:25;;;;;;;176.13;163.80;;;10.50;99.90;;;;;;4972792;28;20042;-72
2024/01/04 02:36:51;;;;;;;171.20;159.93;;;10.50;99.90;;;;;;4988956;28;20112;-72
2024/01/04 02:39:17;;;;;;;148.18;137.40;;;10.50;99.90;;;;;;4990709;28;20050;-72
2024/01/04 02:41:43;;;;;;;158.82;147.15;;;10.50;99.90;;;;;;4990334;28;20042;-72
2024/01/04 02:44:09;;;;;;;178.10;166.93;;;10.50;99.90;;;;;;4989292;28;20473;-72
2024/01/04 02:46:35;;;;;;;122.00;114.22;;;10.50;99.90;;;;;;4989196;28;20042;-72
2024/01/04 02:49:01;;;;;;;134.73;124.80;;;10.50;99.90;;;;;;4990098;28;20400;-72
2024/01/04 02:51:27;;;;;;;144.13;133.77;;;10.50;99.90;;;;;;4989795;28;20034;-72
2024/01/04 02:53:53;;;;;;;150.60;140.48;;;10.50;99.90;;;;;;4989470;28;20035;-72
2024/01/04 02:56:19;;;;;;;133.35;124.13;;;10.50;99.90;;;;;;4989922;28;20034;-72
2024/01/04 02:58:45;;;;;;;121.35;112.25;;;10.40;99.90;;;;;;4990305;28;20053;-72
2024/01/04 03:01:19;;;;;;;124.28;114.18;;;10.40;99.90;;;;;;5025237;27;20481;-72
2024/01/04 03:03:45;;;;;;;146.30;135.48;;;10.50;99.90;;;;;;5026202;28;20029;-72
2024/01/04 03:06:11;;;;;;;119.03;109.30;;;10.40;99.90;;;;;;4992621;28;20472;-72
2024/01/04 03:08:37;;;;;;;119.32;110.75;;;10.40;99.90;;;;;;5024962;28;20035;-72
2024/01/04 03:11:04;;;;;;;116.47;107.57;;;10.40;99.90;;;;;;5001272;28;20460;-72
2024/01/04 03:13:30;;;;;;;122.43;113.78;;;10.40;99.90;;;;;;4989053;28;20029;-72
2024/01/04 03:15:56;;;;;;;117.82;108.95;;;10.50;99.90;;;;;;4988165;28;20508;-72
2024/01/04 03:18:22;;;;;;;137.18;127.25;;;10.50;99.90;;;;;;4988256;28;20049;-72
2024/01/04 03:20:48;;;;;;;166.65;155.35;;;10.40;99.90;;;;;;4987775;28;20034;-72
2024/01/04 03:23:14;;;;;;;117.10;108.78;;;10.40;99.90;;;;;;4996370;28;20048;-72
2024/01/04 03:25:41;;;;;;;163.75;152.25;;;10.40;99.90;;;;;;4988401;28;20034;-72
2024/01/04 03:28:07;;;;;;;272.77;254.10;;;10.40;99.90;;;;;;4988665;28;20038;-72
2024/01/04 03:30:33;;;;;;;288.10;269.13;;;10.40;99.90;;;;;;4988041;28;20052;-72
2024/01/04 03:32:59;;;;;;;248.55;231.60;;;10.40;99.90;;;;;;4988833;28;20034;-72
2024/01/04 03:35:25;;;;;;;202.88;189.15;;;10.40;99.90;;;;;;4988593;28;20022;-72
2024/01/04 03:37:51;;;;;;;205.10;190.77;;;10.50;99.90;;;;;;4987601;28;20391;-72
2024/01/04 03:40:18;;;;;;;228.18;213.25;;;10.40;99.90;;;;;;4989798;28;20043;-72
2024/01/04 03:42:44;;;;;;;287.73;268.88;;;10.40;99.90;;;;;;4990025;28;20038;-72
2024/01/04 03:45:11;;;;;;;249.15;231.73;;;10.40;99.90;;;;;;4989638;28;20384;-72
2024/01/04 03:47:37;;;;;;;289.52;271.13;;;10.40;99.90;;;;;;4989345;28;20425;-72
2024/01/04 03:50:05;;;;;;;236.07;220.48;;;10.50;99.90;;;;;;4988540;28;20114;-72
2024/01/04 03:52:31;;;;;;;197.52;184.30;;;10.50;99.90;;;;;;4987917;28;20492;-72
2024/01/04 03:54:58;;;;;;;197.27;184.20;;;10.50;99.90;;;;;;4972145;28;20034;-72
2024/01/04 03:57:24;;;;;;;185.93;173.85;;;10.50;99.90;;;;;;4988259;28;20038;-72
2024/01/04 03:59:50;;;;;;;197.88;184.95;;;10.50;99.90;;;;;;4989215;28;20415;-72
2024/01/04 04:02:16;;;;;;;200.13;186.75;;;10.50;99.90;;;;;;5036925;28;20027;-72
2024/01/04 04:04:42;;;;;;;194.75;182.23;;;10.50;99.90;;;;;;4991778;28;20503;-72
2024/01/04 04:07:10;;;;;;;185.45;173.25;;;10.40;99.90;;;;;;4992582;28;20033;-72
2024/01/04 04:09:36;;;;;;;213.50;200.23;;;10.50;99.90;;;;;;4991391;28;20108;-72
2024/01/04 04:12:02;;;;;;;214.80;201.48;;;10.50;99.90;;;;;;4992950;28;20384;-72
2024/01/04 04:14:29;;;;;;;285.02;267.33;;;10.50;99.90;;;;;;4991280;28;20034;-72
2024/01/04 04:16:55;;;;;;;267.17;250.18;;;10.50;99.90;;;;;;4991885;28;20427;-72
2024/01/04 04:19:21;;;;;;;228.00;213.32;;;10.50;99.90;;;;;;4991559;28;20053;-72
2024/01/04 04:21:47;;;;;;;198.02;185.25;;;10.40;99.90;;;;;;4992351;28;20397;-72
2024/01/04 04:24:13;;;;;;;196.75;184.07;;;10.40;99.90;;;;;;4992456;28;20041;-72
2024/01/04 04:26:40;;;;;;;254.82;238.18;;;10.40;99.90;;;;;;4992734;28;20042;-72
2024/01/04 04:29:06;;;;;;;239.18;223.27;;;10.30;99.90;;;;;;4990747;28;20042;-72
2024/01/04 04:31:32;;;;;;;221.88;208.43;;;10.30;99.90;;;;;;4992476;28;20038;-72
2024/01/04 04:33:58;;;;;;;213.43;198.95;;;10.30;99.90;;;;;;4992843;28;20053;-72
2024/01/04 04:36:24;;;;;;;164.32;153.57;;;10.30;99.90;;;;;;4991715;28;20038;-72
2024/01/04 04:38:50;;;;;;;153.55;142.98;;;10.30;99.90;;;;;;4992280;28;20050;-72
2024/01/04 04:41:16;;;;;;;156.85;146.57;;;10.30;99.90;;;;;;4990924;28;20073;-72
2024/01/04 04:43:43;;;;;;;150.82;139.88;;;10.20;99.90;;;;;;4991863;28;20408;-72
2024/01/04 04:46:11;;;;;;;141.90;131.35;;;10.20;99.90;;;;;;4993892;28;20053;-72
2024/01/04 04:48:37;;;;;;;127.25;117.72;;;10.10;99.90;;;;;;4992495;28;20033;-72
2024/01/04 04:51:04;;;;;;;229.65;214.18;;;10.20;99.90;;;;;;4990612;28;20041;-72
2024/01/04 04:53:30;;;;;;;146.45;134.95;;;10.20;99.90;;;;;;4992454;28;20373;-72
2024/01/04 04:55:56;;;;;;;129.23;119.38;;;10.20;99.90;;;;;;4991689;28;20026;-72
2024/01/04 04:58:22;;;;;;;110.53;100.97;;;10.20;99.90;;;;;;4992165;28;20041;-72
2024/01/04 05:00:48;;;;;;;99.85;92.00;;;10.10;99.90;;;;;;4993864;28;20026;-72
2024/01/04 05:03:14;;;;;;;124.88;115.15;;;10.20;99.90;;;;;;4992220;28;20037;-72
2024/01/04 05:05:40;;;;;;;125.00;114.90;;;10.20;99.90;;;;;;4991793;28;20046;-72
2024/01/04 05:08:07;;;;;;;122.57;111.95;;;10.20;99.90;;;;;;4991574;28;20049;-72
2024/01/04 05:10:33;;;;;;;119.88;111.00;;;10.30;99.90;;;;;;4992403;28;20041;-72
2024/01/04 05:12:59;;;;;;;118.18;108.20;;;10.20;99.90;;;;;;4990306;28;20030;-72
2024/01/04 05:15:28;;;;;;;147.90;136.02;;;10.20;99.90;;;;;;4990535;28;20035;-72
2024/01/04 05:17:54;;;;;;;173.10;160.35;;;10.20;99.90;;;;;;4990779;28;20047;-72
2024/01/04 05:20:20;;;;;;;242.85;226.52;;;10.20;99.90;;;;;;4991378;28;20057;-72
2024/01/04 05:22:46;;;;;;;240.52;224.50;;;10.30;99.90;;;;;;4991681;28;20035;-72
2024/01/04 05:25:12;;;;;;;239.13;223.00;;;10.30;99.90;;;;;;4991800;28;20045;-72
2024/01/04 05:27:39;;;;;;;1176.15;243.93;;;10.40;99.90;;;;;;4991526;28;20026;-72
2024/01/04 05:30:07;;;;;;;168.77;156.30;;;10.40;99.90;;;;;;4989868;28;20050;-72
2024/01/04 05:32:34;;;;;;;201.23;187.07;;;10.50;99.90;;;;;;4991655;28;20041;-71
2024/01/04 05:35:00;;;;;;;229.43;213.95;;;10.50;99.90;;;;;;4991457;28;20487;-72
2024/01/04 05:37:26;;;;;;;260.23;242.40;;;10.50;99.90;;;;;;4986477;28;20022;-72
2024/01/04 05:39:53;;;;;;;198.50;185.20;;;10.40;99.90;;;;;;4983012;28;20046;-72
2024/01/04 05:42:19;;;;;;;237.63;221.88;;;10.40;99.90;;;;;;4990551;28;20031;-72
2024/01/04 05:44:45;;;;;;;183.85;171.57;;;10.40;99.90;;;;;;4990260;28;20041;-72
2024/01/04 05:47:11;;;;;;;208.93;194.90;;;10.30;99.90;;;;;;4991762;28;20400;-72
2024/01/04 05:49:37;;;;;;;211.05;196.82;;;10.40;99.90;;;;;;4989966;28;20035;-72
2024/01/04 05:52:04;;;;;;;226.10;210.25;;;10.40;99.90;;;;;;4989906;28;20465;-72
2024/01/04 05:54:30;;;;;;;237.85;221.60;;;10.30;99.90;;;;;;4973169;28;20047;-72
2024/01/04 05:56:56;;;;;;;241.65;225.38;;;10.30;99.90;;;;;;4991562;28;20409;-72
2024/01/04 05:59:24;;;;;;;116.43;106.78;;;10.30;99.90;;;;;;4990653;28;20042;-72
2024/01/04 06:01:51;;;;;;;148.50;137.15;;;10.30;99.90;;;;;;5008213;28;20521;-70
2024/01/04 06:04:17;;;;;;;210.43;195.68;;;10.30;99.90;;;;;;4990510;28;20384;-70
2024/01/04 06:06:44;;;;;;;164.23;152.57;;;10.30;99.90;;;;;;4990601;28;20054;-71
2024/01/04 06:09:10;;;;;;;132.48;121.78;;;10.30;99.90;;;;;;4990024;28;20057;-73
2024/01/04 06:11:39;;;;;;;134.27;123.43;;;10.30;99.90;;;;;;4990802;28;20034;-72
2024/01/04 06:14:07;;;;;;;141.00;128.75;;;10.20;99.90;;;;;;4990085;28;20519;-72
2024/01/04 06:16:34;;;;;;;115.57;105.63;;;10.10;99.90;;;;;;4990591;28;20039;-72
2024/01/04 06:19:00;;;;;;;113.90;104.05;;;10.10;99.90;;;;;;4990417;28;20042;-72
2024/01/04 06:21:26;;;;;;;118.80;109.20;;;10.20;99.90;;;;;;4990909;28;20034;-72
2024/01/04 06:23:52;;;;;;;120.25;110.38;;;10.10;99.90;;;;;;4990233;28;20038;-72
2024/01/04 06:26:18;;;;;;;128.30;118.28;;;10.20;99.90;;;;;;4990699;28;20061;-71
2024/01/04 06:28:45;;;;;;;271.00;124.07;;;10.10;99.90;;;;;;4990597;28;20042;-72
2024/01/04 06:31:11;;;;;;;140.98;129.38;;;10.10;99.90;;;;;;4989519;28;20034;-72
2024/01/04 06:33:37;;;;;;;131.57;121.70;;;10.10;99.90;;;;;;4989948;28;20038;-71
2024/01/04 06:36:05;;;;;;;218.95;204.20;;;10.10;99.90;;;;;;4990883;28;20034;-72
2024/01/04 06:38:31;;;;;;;152.32;140.65;;;10.00;99.90;;;;;;4971283;28;20500;-72
2024/01/04 06:40:58;;;;;;;171.32;158.40;;;10.00;99.90;;;;;;4992194;28;20042;-72
2024/01/04 06:43:27;;;;;;;184.38;171.30;;;10.00;99.90;;;;;;4990619;28;20037;-72
2024/01/04 06:45:53;;;;;;;180.88;168.52;;;10.10;99.90;;;;;;4989455;28;20038;-72
2024/01/04 06:48:20;;;;;;;154.63;141.85;;;10.20;99.90;;;;;;4989010;28;20030;-72
2024/01/04 06:50:46;;;;;;;151.55;140.00;;;10.20;99.90;;;;;;4989859;28;20076;-72
2024/01/04 06:53:14;;;;;;;189.85;175.93;;;10.30;99.90;;;;;;4990069;28;20030;-72
2024/01/04 06:55:40;;;;;;;237.77;221.15;;;10.40;99.90;;;;;;4990580;28;20034;-72
2024/01/04 06:58:08;;;;;;;205.55;189.70;;;10.40;99.90;;;;;;4990258;28;20037;-72
2024/01/04 07:00:34;;;;;;;204.55;188.77;;;10.30;99.90;;;;;;4997413;28;20034;-72
2024/01/04 07:03:00;;;;;;;200.48;186.20;;;10.30;99.90;;;;;;5091204;28;20062;-72
2024/01/04 07:05:26;;;;;;;177.82;164.85;;;10.20;99.90;;;;;;5079960;28;20122;-71
2024/01/04 07:07:52;;;;;;;204.73;189.82;;;10.20;99.90;;;;;;4990200;28;20042;-72
2024/01/04 07:10:18;;;;;;;205.88;189.00;;;10.30;99.90;;;;;;4989999;28;20041;-71
2024/01/04 07:12:45;;;;;;;183.95;171.15;;;10.30;99.90;;;;;;4989618;28;20515;-72
2024/01/04 07:15:11;;;;;;;158.80;145.07;;;10.20;99.90;;;;;;4987975;27;20065;-72
2024/01/04 07:17:38;;;;;;;169.18;156.65;;;10.20;99.90;;;;;;4989089;28;20038;-72
2024/01/04 07:20:05;;;;;;;199.57;185.00;;;10.20;99.90;;;;;;4988453;28;20054;-71
2024/01/04 07:22:31;;;;;;;205.77;191.35;;;10.20;99.90;;;;;;4989117;28;20386;-72
2024/01/04 07:24:57;;;;;;;235.13;218.65;;;10.20;99.90;;;;;;4990327;28;20046;-72
2024/01/04 07:27:23;;;;;;;215.98;201.43;;;10.30;99.90;;;;;;4989767;28;20053;-72
2024/01/04 07:29:50;;;;;;;232.75;216.52;;;10.30;99.90;;;;;;4987773;28;20042;-72
2024/01/04 07:32:18;;;;;;;216.45;200.88;;;10.20;99.90;;;;;;5072472;28;20035;-72
2024/01/04 07:34:44;;;;;;;232.88;216.07;;;10.20;99.90;;;;;;4988534;28;20037;-71
2024/01/04 07:37:11;;;;;;;187.05;173.35;;;10.20;99.90;;;;;;4991122;28;20046;-72
2024/01/04 07:39:37;;;;;;;205.38;192.13;;;10.20;99.90;;;;;;4989936;28;20050;-71
2024/01/04 07:42:03;;;;;;;211.02;196.63;;;10.20;99.90;;;;;;4989880;28;20042;-71
2024/01/04 07:44:30;;;;;;;212.35;197.07;;;10.20;99.90;;;;;;4993169;28;20030;-71
2024/01/04 07:46:56;;;;;;;213.68;198.13;;;10.20;99.90;;;;;;5005569;28;20025;-71
2024/01/04 07:49:23;;;;;;;186.43;172.23;;;10.20;99.90;;;;;;4984789;28;20030;-71
2024/01/04 07:51:50;;;;;;;205.48;191.13;;;10.20;99.90;;;;;;4980994;28;20038;-71
2024/01/04 07:54:16;;;;;;;189.95;175.80;;;10.30;99.90;;;;;;4987429;28;20038;-71
2024/01/04 07:56:42;;;;;;;202.60;187.60;;;10.30;99.90;;;;;;4987681;28;20057;-71
2024/01/04 07:59:08;;;;;;;199.13;184.52;;;10.30;99.90;;;;;;4992002;28;20034;-73
2024/01/04 08:01:34;;;;;;;207.57;192.52;;;10.20;99.90;;;;;;5030919;28;20034;-71
2024/01/04 08:04:00;;;;;;;221.85;205.38;;;10.20;99.90;;;;;;5046371;28;20020;-71
2024/01/04 08:06:26;;;;;;;231.68;214.88;;;10.20;99.90;;;;;;4999469;28;20027;-72
2024/01/04 08:08:52;;;;;;;168.73;155.68;;;10.20;99.90;;;;;;4995522;28;20030;-71
2024/01/04 08:11:19;;;;;;;224.88;207.70;;;10.20;99.90;;;;;;5022877;28;20034;-72
2024/01/04 08:13:45;;;;;;;198.05;184.82;;;10.20;99.90;;;;;;4986823;28;20038;-72
2024/01/04 08:16:11;;;;;;;174.60;161.38;;;10.20;99.90;;;;;;4988808;28;20038;-72
2024/01/04 08:18:37;;;;;;;192.20;177.88;;;10.20;99.90;;;;;;5008744;28;20414;-72
2024/01/04 08:21:04;;;;;;;216.00;199.93;;;10.20;99.90;;;;;;5091610;28;20031;-72
2024/01/04 08:23:31;;;;;;;193.27;179.52;;;10.20;99.90;;;;;;4989158;28;20034;-72
2024/01/04 08:25:57;;;;;;;225.02;209.18;;;10.30;99.90;;;;;;4987974;28;20034;-72
2024/01/04 08:28:23;;;;;;;205.77;191.52;;;10.30;99.90;;;;;;4992123;28;20039;-72
2024/01/04 08:30:49;;;;;;;228.90;213.30;;;10.30;99.90;;;;;;4998277;28;20049;-82
2024/01/04 08:33:15;;;;;;;251.25;233.65;;;10.40;99.90;;;;;;4988166;28;20045;-80
2024/01/04 08:35:41;;;;;;;256.92;238.82;;;10.50;99.90;;;;;;4988062;28;20030;-77
2024/01/04 08:38:07;;;;;;;200.57;186.77;;;10.60;99.90;;;;;;4988710;28;20468;-77
2024/01/04 08:40:36;;;;;;;249.43;230.00;;;10.70;99.90;;;;;;4989025;28;20054;-82
2024/01/04 08:43:03;;;;;;;207.52;193.18;;;10.80;99.90;;;;;;4990610;28;20029;-80
2024/01/04 08:45:33;;;;;;;223.10;208.25;;;10.80;99.90;;;;;;4984098;28;20045;-76
2024/01/04 08:47:59;;;;;;;357.13;332.88;;;10.90;99.90;;;;;;4987700;28;20669;-76
2024/01/04 08:50:25;;;;;;;367.15;342.05;;;10.90;99.90;;;;;;4991228;28;20034;-75
2024/01/04 08:52:51;;;;;;;298.77;278.17;;;10.90;99.90;;;;;;5011615;28;20388;-76
2024/01/04 08:55:20;;;;;;;255.48;237.60;;;11.00;99.90;;;;;;5088702;28;20478;-75
2024/01/04 08:57:46;;;;;;;280.17;262.48;;;11.00;99.90;;;;;;5004350;28;20400;-75
2024/01/04 09:00:14;;;;;;;275.52;256.35;;;11.00;99.90;;;;;;4991484;28;20037;-77
2024/01/04 09:02:42;;;;;;;175.52;162.93;;;11.10;99.90;;;;;;4989793;28;20047;-81
2024/01/04 09:05:08;;;;;;;180.85;166.30;;;11.00;99.90;;;;;;4990149;28;20028;-81
2024/01/04 09:07:35;;;;;;;154.95;144.00;;;11.00;99.90;;;;;;4990389;28;20038;-81
2024/01/04 09:10:01;;;;;;;230.35;215.38;;;11.00;99.90;;;;;;5006048;28;20055;-81
2024/01/04 09:12:27;;;;;;;268.83;252.07;;;10.90;99.90;;;;;;4979152;28;20046;-81
2024/01/04 09:14:53;;;;;;;297.45;278.35;;;10.90;99.90;;;;;;4992469;28;20053;-81
2024/01/04 09:17:19;;;;;;;171.85;160.35;;;10.90;99.90;;;;;;5005796;28;20046;-81
2024/01/04 09:19:47;;;;;;;163.00;151.40;;;10.90;99.90;;;;;;5007825;28;20078;-81
2024/01/04 09:22:13;;;;;;;174.73;163.07;;;10.90;99.90;;;;;;4991523;28;20042;-81
2024/01/04 09:24:39;;;;;;;194.98;181.05;;;10.80;99.90;;;;;;4991220;28;20038;-81
2024/01/04 09:27:05;;;;;;;180.48;169.13;;;10.80;99.90;;;;;;4989899;28;20034;-82
2024/01/04 09:29:31;;;;;;;233.23;216.68;;;10.80;99.90;;;;;;4991748;28;20030;-81
2024/01/04 09:31:57;;;;;;;283.13;264.90;;;10.80;99.90;;;;;;4989644;28;20030;-78
2024/01/04 09:34:24;;;;;;;210.32;194.82;;;10.80;99.90;;;;;;4990788;28;20049;-79
2024/01/04 09:36:50;;;;;;;216.23;201.02;;;10.90;99.90;;;;;;4992063;28;20046;-82
2024/01/04 09:39:17;;;;;;;249.52;232.32;;;10.90;99.90;;;;;;4988273;28;20046;-82
2024/01/04 09:41:47;;;;;;;266.10;248.30;;;10.90;99.90;;;;;;4991056;28;20469;-82
2024/01/04 09:44:13;;;;;;;221.15;206.63;;;10.90;99.90;;;;;;4991420;28;20030;-82
2024/01/04 09:46:40;;;;;;;199.07;186.40;;;10.90;99.90;;;;;;4990167;28;20046;-82
2024/01/04 09:49:07;;;;;;;162.85;151.55;;;10.90;99.90;;;;;;4990728;28;20035;-82
2024/01/04 09:51:36;;;;;;;159.45;148.20;;;11.00;99.90;;;;;;4990432;28;20079;-82
2024/01/04 09:54:09;;;;;;;174.63;162.65;;;11.00;99.90;;;;;;4990101;28;20045;-82
2024/01/04 09:56:40;;;;;;;188.60;176.18;;;11.00;99.90;;;;;;4981081;28;20514;-83
2024/01/04 09:59:07;;;;;;;210.68;197.25;;;11.10;99.90;;;;;;4990284;28;20038;-83
2024/01/04 10:01:35;;;;;;;232.55;217.82;;;11.10;99.90;;;;;;4989600;28;20473;-83
2024/01/04 10:04:12;;;;;;;217.82;204.25;;;11.20;99.90;;;;;;4971907;28;20504;-81
2024/01/04 10:06:40;;;;;;;146.02;136.05;;;11.20;99.90;;;;;;4989926;28;20026;-82
2024/01/04 10:09:18;;;;;;;187.52;175.40;;;11.30;99.90;;;;;;4989635;28;20034;-81
2024/01/04 10:11:53;;;;;;;202.25;189.35;;;11.40;99.90;;;;;;4996523;28;20038;-82
2024/01/04 10:14:19;;;;;;;232.50;217.43;;;11.50;99.90;;;;;;4989991;28;20030;-82
2024/01/04 10:16:49;;;;;;;274.88;257.42;;;11.50;99.90;;;;;;4989480;28;20042;-82
2024/01/04 10:19:16;;;;;;;335.35;314.23;;;11.50;99.90;;;;;;4989101;28;20054;-82
2024/01/04 10:21:45;;;;;;;240.73;226.05;;;11.60;99.90;;;;;;4988621;28;20049;-82
2024/01/04 10:24:14;;;;;;;294.42;272.48;;;11.70;99.90;;;;;;4989926;28;20038;-82
2024/01/04 10:26:44;;;;;;;270.65;253.48;;;11.70;99.90;;;;;;4988983;28;20049;-81
2024/01/04 10:29:10;;;;;;;228.65;213.25;;;11.80;99.90;;;;;;4989437;28;20057;-72
2024/01/04 10:31:36;;;;;;;217.70;203.95;;;11.80;99.90;;;;;;4990586;27;20034;-72
2024/01/04 10:34:02;;;;;;;211.48;198.23;;;11.80;99.90;;;;;;4990721;28;20092;-71
2024/01/04 10:36:28;;;;;;;178.40;167.40;;;11.90;99.90;;;;;;4991026;28;20026;-71
2024/01/04 10:39:01;;;;;;;174.18;163.13;;;11.90;99.90;;;;;;4990185;28;20041;-71
2024/01/04 10:41:28;;;;;;;201.20;188.10;;;12.00;99.90;;;;;;4991072;28;20031;-72
2024/01/04 10:44:17;;;;;;;206.00;194.02;;;12.00;99.90;;;;;;4990393;28;20042;-72
2024/01/04 10:46:43;;;;;;;143.30;133.95;;;12.10;99.90;;;;;;4990298;28;20038;-71
2024/01/04 10:49:09;;;;;;;168.05;157.77;;;12.10;99.90;;;;;;4991297;28;20465;-71
2024/01/04 10:51:35;;;;;;;258.48;243.35;;;12.10;99.90;;;;;;4989879;28;20049;-72
2024/01/04 10:54:01;;;;;;;224.02;210.52;;;12.10;99.90;;;;;;4989049;28;20477;-72
2024/01/04 10:56:29;;;;;;;206.77;193.93;;;12.10;99.90;;;;;;4990398;28;20049;-71
2024/01/04 10:58:56;;;;;;;251.63;235.95;;;12.00;99.90;;;;;;4990666;28;20022;-72
2024/01/04 11:01:22;;;;;;;277.90;261.30;;;12.10;99.90;;;;;;4990018;28;20038;-71
2024/01/04 11:03:49;;;;;;;199.57;187.48;;;12.10;99.90;;;;;;4990584;28;20030;-71
2024/01/04 11:06:15;;;;;;;204.25;191.73;;;12.10;99.90;;;;;;4989069;28;20393;-72
2024/01/04 11:08:41;;;;;;;204.32;191.98;;;12.10;99.90;;;;;;4990296;28;20030;-71
2024/01/04 11:11:09;;;;;;;244.15;230.30;;;12.20;99.90;;;;;;5019102;28;20049;-72
2024/01/04 11:13:35;;;;;;;237.30;223.20;;;12.20;99.90;;;;;;4989692;28;20041;-71
2024/01/04 11:16:07;;;;;;;241.60;226.40;;;12.10;99.90;;;;;;4989017;28;20042;-71
2024/01/04 11:19:00;;;;;;;209.50;196.93;;;12.20;99.90;;;;;;4989404;28;20027;-71
2024/01/04 11:22:03;;;;;;;243.82;230.00;;;12.20;99.90;;;;;;4995011;28;20054;-71
2024/01/04 11:24:50;;;;;;;206.65;194.07;;;12.20;99.90;;;;;;4990278;28;20030;-71
2024/01/04 11:27:17;;;;;;;198.48;187.10;;;12.30;99.90;;;;;;4990221;28;20037;-71
2024/01/04 11:29:44;;;;;;;267.88;252.73;;;12.20;99.90;;;;;;5073054;28;20035;-71
2024/01/04 11:32:10;;;;;;;235.50;221.90;;;12.30;99.90;;;;;;5068506;28;20042;-82
2024/01/04 11:34:39;;;;;;;210.48;198.07;;;12.30;99.90;;;;;;4998690;28;20034;-82
2024/01/04 11:37:11;;;;;;;250.20;236.43;;;12.30;99.90;;;;;;5010094;28;20037;-82
2024/01/04 11:40:00;;;;;;;225.48;212.77;;;12.40;99.90;;;;;;5001023;28;20045;-82
2024/01/04 11:42:41;;;;;;;177.50;167.30;;;12.40;99.90;;;;;;4988160;28;20053;-82
2024/01/04 11:45:15;;;;;;;261.08;245.80;;;12.50;99.90;;;;;;4988923;27;20042;-81
2024/01/04 11:47:44;;;;;;;657.75;398.70;;;12.60;99.90;;;;;;5011873;28;20419;-82
2024/01/04 11:50:22;;;;;;;1999.90;999.90;;;12.70;99.90;;;;;;4969951;28;20026;-82
2024/01/04 11:52:49;;;;;;;1999.90;999.90;;;12.80;99.90;;;;;;4984804;28;20050;-82
2024/01/04 11:55:25;;;;;;;1564.55;810.75;;;12.80;99.90;;;;;;4989446;28;20030;-82
2024/01/04 11:58:08;;;;;;;1999.90;999.90;;;12.90;99.90;;;;;;4989651;28;20030;-82
2024/01/04 12:00:35;;;;;;;1999.90;999.90;;;12.90;99.90;;;;;;4988728;28;20053;-82
2024/01/04 12:03:01;;;;;;;1999.90;999.90;;;12.90;99.90;;;;;;4988757;28;20030;-82
2024/01/04 12:05:30;;;;;;;1999.90;999.90;;;12.80;99.90;;;;;;4988809;28;20044;-82
2024/01/04 12:07:57;;;;;;;1999.90;999.90;;;12.90;99.90;;;;;;4989425;28;20030;-82